createdAt,value
2016-04-20T08:26:56.406Z,35.63
2016-04-20T08:27:06.406Z,35.52
2016-04-20T08:27:16.422Z,35.34
2016-04-20T08:27:26.422Z,35.16
2016-04-20T08:27:36.422Z,35.16
2016-04-20T08:27:46.438Z,35.45
2016-04-20T08:27:56.441Z,34.89
2016-04-20T08:28:06.456Z,34.81
2016-04-20T08:28:16.456Z,34.42
2016-04-20T08:28:26.472Z,34.33
2016-04-20T08:28:36.472Z,34.42
2016-04-20T08:28:46.488Z,34.04
2016-04-20T08:28:56.490Z,33.86
2016-04-20T08:29:06.505Z,33.95
2016-04-20T08:29:16.505Z,33.86
2016-04-20T08:29:26.521Z,33.69
2016-04-20T08:29:36.521Z,32.99
2016-04-20T08:29:46.521Z,32.81
2016-04-20T08:29:56.539Z,33.2
2016-04-20T08:30:06.539Z,32.54
2016-04-20T08:30:16.555Z,32.54
2016-04-20T08:30:26.555Z,32.64
2016-04-20T08:30:36.571Z,32.44
2016-04-20T08:30:46.571Z,32.24
2016-04-20T08:30:56.589Z,32.54
2016-04-20T08:31:06.589Z,32.64
2016-04-20T08:31:16.605Z,32.34
2016-04-20T08:31:26.605Z,32.17
2016-04-20T08:31:36.605Z,31.87
2016-04-20T08:31:46.621Z,32.07
2016-04-20T08:31:56.623Z,32.09
2016-04-20T08:32:06.638Z,31.89
2016-04-20T08:32:16.638Z,32.07
2016-04-20T08:32:26.654Z,31.78
2016-04-20T08:32:36.654Z,31.7
2016-04-20T08:32:46.669Z,31.87
2016-04-20T08:32:56.672Z,31.6
2016-04-20T08:33:06.688Z,31.31
2016-04-20T08:33:16.688Z,31.5
2016-04-20T08:33:26.688Z,31.04
2016-04-20T08:33:39.344Z,30.94
2016-04-20T08:33:46.719Z,31.13
2016-04-20T08:33:56.722Z,30.85
2016-04-20T08:34:06.925Z,30.85
2016-04-20T08:34:18.160Z,30.76
2016-04-20T08:34:26.738Z,30.48
2016-04-20T08:34:36.769Z,30.87
2016-04-20T08:34:46.785Z,30.48
2016-04-20T08:34:56.787Z,30.01
2016-04-20T08:35:06.896Z,30.11
2016-04-20T08:35:16.787Z,30.11
2016-04-20T08:35:26.787Z,29.62
2016-04-20T08:35:36.802Z,29.64
2016-04-20T08:35:46.802Z,29.93
2016-04-20T08:35:56.821Z,30.02
2016-04-20T08:36:06.821Z,29.91
2016-04-20T08:36:16.837Z,29.83
2016-04-20T08:36:26.837Z,29.83
2016-04-20T08:36:36.852Z,29.44
2016-04-20T08:36:46.852Z,29.35
2016-04-20T08:36:56.855Z,29.35
2016-04-20T08:37:06.871Z,29.25
2016-04-20T08:37:16.887Z,29.26
2016-04-20T08:37:26.887Z,28.99
2016-04-20T08:37:36.887Z,29.08
2016-04-20T08:37:46.902Z,29.18
2016-04-20T08:37:56.904Z,28.9
2016-04-20T08:38:06.920Z,28.61
2016-04-20T08:38:16.951Z,28.42
2016-04-20T08:38:26.935Z,28.13
2016-04-20T08:38:36.935Z,28.11
2016-04-20T08:38:47.092Z,28.22
2016-04-20T08:38:56.954Z,28.03
2016-04-20T08:39:06.970Z,28.13
2016-04-20T08:39:16.970Z,28.04
2016-04-20T08:39:26.985Z,28.13
2016-04-20T08:39:36.985Z,28.32
2016-04-20T08:39:47.001Z,28.32
2016-04-20T08:39:57.004Z,28.14
2016-04-20T08:40:07.020Z,27.94
2016-04-20T08:40:17.020Z,28.23
2016-04-20T08:40:27.035Z,28.04
2016-04-20T08:40:37.066Z,28.23
2016-04-20T08:40:47.051Z,28.03
2016-04-20T08:40:57.054Z,28.03
2016-04-20T08:41:07.069Z,27.84
2016-04-20T08:41:17.069Z,27.75
2016-04-20T08:41:27.085Z,27.75
2016-04-20T08:41:37.085Z,27.76
2016-04-20T08:41:47.101Z,27.56
2016-04-20T08:41:57.118Z,27.47
2016-04-20T08:42:07.118Z,27.45
2016-04-20T08:42:17.118Z,27.37
2016-04-20T08:42:27.134Z,27.36
2016-04-20T08:42:37.134Z,27.16
2016-04-20T08:42:47.150Z,27.26
2016-04-20T08:42:57.153Z,27.36
2016-04-20T08:43:07.168Z,27.26
2016-04-20T08:43:17.184Z,27.55
2016-04-20T08:43:27.199Z,27.45
2016-04-20T08:43:37.199Z,27.55
2016-04-20T08:43:47.199Z,27.64
2016-04-20T08:43:57.218Z,27.44
2016-04-20T08:44:07.218Z,27.64
2016-04-20T08:44:17.234Z,27.64
2016-04-20T08:44:27.234Z,27.75
2016-04-20T08:44:37.234Z,27.55
2016-04-20T08:44:47.249Z,27.45
2016-04-20T08:44:57.252Z,27.26
2016-04-20T08:45:07.252Z,27.44
2016-04-20T08:45:17.268Z,27.36
2016-04-20T08:45:27.284Z,27.34
2016-04-20T08:45:37.284Z,27.36
2016-04-20T08:45:47.299Z,27.45
2016-04-20T08:45:57.301Z,27.36
2016-04-20T08:46:07.317Z,27.37
2016-04-20T08:46:17.317Z,27.26
2016-04-20T08:46:27.332Z,27.06
2016-04-20T08:46:37.332Z,27.36
2016-04-20T08:46:47.348Z,27.45
2016-04-20T08:46:57.351Z,27.44
2016-04-20T08:47:07.367Z,27.53
2016-04-20T08:47:17.367Z,27.82
2016-04-20T08:47:27.382Z,27.53
2016-04-20T08:47:37.382Z,27.64
2016-04-20T08:47:47.382Z,27.64
2016-04-20T08:47:57.401Z,27.73
2016-04-20T08:48:07.417Z,27.64
2016-04-20T08:48:17.417Z,27.64
2016-04-20T08:48:27.432Z,28.2
2016-04-20T08:48:37.432Z,27.92
2016-04-20T08:48:47.448Z,28.02
2016-04-20T08:48:57.451Z,28
2016-04-20T08:49:07.466Z,28.47
2016-04-20T08:49:17.466Z,28.66
2016-04-20T08:49:27.482Z,29.05
2016-04-20T08:49:37.498Z,29.05
2016-04-20T08:49:47.545Z,29.15
2016-04-20T08:49:57.500Z,29.35
2016-04-20T08:50:57.940Z,28.96
2016-04-20T08:51:07.909Z,29.36
2016-04-20T08:51:17.925Z,29.18
2016-04-20T08:51:27.925Z,29.08
2016-04-20T08:51:37.956Z,28.59
2016-04-20T08:51:47.958Z,28.69
2016-04-20T08:51:57.958Z,28.4
2016-04-20T08:52:07.958Z,28.32
2016-04-20T08:52:17.973Z,28.13
2016-04-20T08:52:27.973Z,28.13
2016-04-20T08:52:37.989Z,28.03
2016-04-20T08:52:47.992Z,28.22
2016-04-20T08:52:58.008Z,27.94
2016-04-20T08:53:08.008Z,27.83
2016-04-20T08:53:18.023Z,28.04
2016-04-20T08:53:28.023Z,28.03
2016-04-20T08:53:38.039Z,28.43
2016-04-20T08:53:48.042Z,28.61
2016-04-20T08:53:58.058Z,28.51
2016-04-20T08:54:08.058Z,28.69
2016-04-20T08:54:18.073Z,29.18
2016-04-20T08:54:28.089Z,29.08
2016-04-20T08:54:38.089Z,29.47
2016-04-20T08:54:48.106Z,29.36
2016-04-20T08:54:58.106Z,29.64
2016-04-20T08:55:08.106Z,29.74
2016-04-20T08:55:18.122Z,30.02
2016-04-20T08:55:28.122Z,30.01
2016-04-20T08:55:38.138Z,29.8
2016-04-20T08:55:48.141Z,30.11
2016-04-20T08:55:58.156Z,30
2016-04-20T08:56:08.156Z,30.48
2016-04-20T08:56:18.172Z,30.58
2016-04-20T08:56:28.188Z,30.58
2016-04-20T08:56:38.188Z,30.77
2016-04-20T08:56:48.190Z,30.95
2016-04-20T08:56:58.205Z,30.95
2016-04-20T08:57:08.205Z,31.15
2016-04-20T08:57:18.221Z,31.05
2016-04-20T08:57:28.236Z,31.04
2016-04-20T08:57:38.236Z,31.42
2016-04-20T08:57:48.240Z,31.6
2016-04-20T08:57:58.256Z,31.7
2016-04-20T08:58:08.256Z,31.68
2016-04-20T08:58:18.272Z,31.97
2016-04-20T08:58:28.272Z,31.87
2016-04-20T08:58:38.287Z,32.09
2016-04-20T08:58:48.289Z,32.09
2016-04-20T08:58:58.305Z,32.09
2016-04-20T08:59:08.321Z,31.89
2016-04-20T08:59:18.321Z,32.07
2016-04-20T08:59:28.321Z,31.6
2016-04-20T08:59:38.336Z,31.5
2016-04-20T08:59:48.339Z,31.68
2016-04-20T08:59:58.355Z,31.68
2016-04-20T09:00:08.355Z,31.76
2016-04-20T09:00:18.370Z,31.67
2016-04-20T09:00:28.370Z,31.86
2016-04-20T09:00:38.386Z,32.24
2016-04-20T09:00:48.389Z,31.96
2016-04-20T09:00:58.405Z,32.52
2016-04-20T09:01:08.405Z,32.52
2016-04-20T09:01:18.405Z,32.62
2016-04-20T09:01:28.436Z,32.62
2016-04-20T09:01:38.436Z,32.44
2016-04-20T09:01:48.438Z,32.44
2016-04-20T09:01:58.454Z,32.34
2016-04-20T09:02:08.454Z,32.56
2016-04-20T09:02:18.469Z,32.17
2016-04-20T09:02:28.469Z,31.68
2016-04-20T09:02:38.469Z,31.68
2016-04-20T09:02:48.488Z,31.29
2016-04-20T09:02:58.488Z,30.91
2016-04-20T09:03:08.503Z,31.2
2016-04-20T09:03:18.503Z,31.46
2016-04-20T09:03:28.519Z,31.65
2016-04-20T09:03:38.519Z,31.96
2016-04-20T09:03:48.959Z,31.76
2016-04-20T09:03:58.552Z,32.04
2016-04-20T09:04:08.552Z,32.02
2016-04-20T09:04:18.568Z,32.51
2016-04-20T09:04:28.568Z,32.6
2016-04-20T09:04:38.584Z,32.7
2016-04-20T09:04:48.633Z,32.89
2016-04-20T09:04:58.587Z,32.99
2016-04-20T09:05:08.602Z,32.91
2016-04-20T09:05:18.602Z,33.01
2016-04-20T09:05:28.618Z,33.1
2016-04-20T09:05:38.618Z,33.01
2016-04-20T09:05:48.620Z,32.91
2016-04-20T09:05:58.635Z,33.09
2016-04-20T09:06:08.651Z,33.37
2016-04-20T09:06:18.651Z,33.37
2016-04-20T09:06:28.651Z,33.57
2016-04-20T09:06:38.667Z,33.57
2016-04-20T09:06:48.686Z,33.67
2016-04-20T09:06:58.686Z,33.86
2016-04-20T09:07:08.686Z,33.63
2016-04-20T09:07:18.702Z,33.92
2016-04-20T09:07:28.702Z,34.31
2016-04-20T09:07:38.702Z,34.41
2016-04-20T09:07:48.720Z,34.5
2016-04-20T09:07:58.735Z,34.87
2016-04-20T09:08:08.735Z,34.97
2016-04-20T09:08:18.735Z,34.87
2016-04-20T09:08:28.751Z,35.14
2016-04-20T09:08:38.766Z,35.61
2016-04-20T09:08:48.769Z,36.09
2016-04-20T09:08:58.769Z,36.09
2016-04-20T09:09:08.785Z,36.27
2016-04-20T09:09:18.801Z,36.94
2016-04-20T09:09:28.801Z,36.94
2016-04-20T09:09:38.801Z,36.93
2016-04-20T09:09:48.819Z,37.21
2016-04-20T09:09:58.819Z,37.6
2016-04-20T09:10:08.835Z,37.87
2016-04-20T09:10:18.835Z,38.26
2016-04-20T09:10:28.851Z,38.06
2016-04-20T09:10:38.851Z,38.24
2016-04-20T09:10:48.854Z,38.24
2016-04-20T09:10:58.869Z,38.33
2016-04-20T09:11:08.869Z,38.24
2016-04-20T09:11:18.885Z,38.33
2016-04-20T09:11:28.885Z,38.53
2016-04-20T09:11:38.900Z,38.24
2016-04-20T09:11:48.902Z,38.43
2016-04-20T09:11:58.918Z,38.62
2016-04-20T09:12:08.918Z,38.83
2016-04-20T09:12:18.918Z,38.56
2016-04-20T09:12:28.934Z,38.56
2016-04-20T09:12:38.949Z,38.29
2016-04-20T09:12:48.952Z,37.91
2016-04-20T09:12:58.952Z,37.93
2016-04-20T09:13:08.968Z,37.45
2016-04-20T09:13:18.968Z,37.06
2016-04-20T09:13:28.984Z,36.79
2016-04-20T09:13:38.984Z,36.32
2016-04-20T09:13:49.002Z,36.69
2016-04-20T09:13:59.002Z,36.11
2016-04-20T09:14:09.018Z,35.92
2016-04-20T09:14:19.018Z,36.21
2016-04-20T09:14:29.033Z,36.3
2016-04-20T09:14:39.033Z,36.11
2016-04-20T09:14:49.035Z,36.09
2016-04-20T09:14:59.051Z,36.29
2016-04-20T09:15:09.051Z,36.38
2016-04-20T09:15:19.067Z,36.29
2016-04-20T09:15:29.067Z,36.07
2016-04-20T09:15:39.082Z,35.78
2016-04-20T09:15:49.085Z,36.55
2016-04-20T09:15:59.101Z,36.55
2016-04-20T09:16:09.101Z,36.63
2016-04-20T09:16:19.117Z,36.93
2016-04-20T09:16:29.117Z,36.93
2016-04-20T09:16:39.148Z,37.02
2016-04-20T09:16:49.134Z,36.93
2016-04-20T09:16:59.150Z,36.91
2016-04-20T09:17:09.150Z,37.48
2016-04-20T09:17:19.150Z,37.19
2016-04-20T09:17:29.165Z,37.19
2016-04-20T09:17:39.165Z,37.1
2016-04-20T09:17:49.184Z,37.58
2016-04-20T09:17:59.184Z,37.39
2016-04-20T09:18:09.184Z,37.76
2016-04-20T09:18:19.200Z,37.85
2016-04-20T09:18:29.215Z,37.85
2016-04-20T09:18:39.215Z,38.24
2016-04-20T09:18:49.218Z,38.14
2016-04-20T09:18:59.234Z,38.24
2016-04-20T09:19:09.234Z,38.22
2016-04-20T09:19:19.250Z,38.41
2016-04-20T09:19:29.250Z,38.6
2016-04-20T09:19:39.296Z,38.79
2016-04-20T09:19:49.440Z,39.28
2016-04-20T09:19:59.284Z,39.36
2016-04-20T09:20:09.284Z,39.93
2016-04-20T09:20:19.299Z,39.54
2016-04-20T09:20:29.299Z,39.74
2016-04-20T09:20:39.315Z,39.83
2016-04-20T09:20:49.317Z,39.83
2016-04-20T09:20:59.333Z,39.86
2016-04-20T09:21:09.333Z,39.76
2016-04-20T09:21:19.364Z,39.86
2016-04-20T09:21:29.333Z,39.76
2016-04-20T09:21:39.348Z,39.78
2016-04-20T09:21:49.367Z,39.78
2016-04-20T09:21:59.373Z,39.61
2016-04-20T09:22:09.377Z,39.61
2016-04-20T09:22:19.392Z,38.76
2016-04-20T09:22:29.382Z,37.89
2016-04-20T09:22:39.397Z,37.98
2016-04-20T09:22:49.416Z,37.62
2016-04-20T09:22:59.416Z,37.63
2016-04-20T09:23:09.416Z,37.35
2016-04-20T09:23:19.416Z,37.06
2016-04-20T09:23:29.431Z,36.88
2016-04-20T09:23:39.431Z,36.21
2016-04-20T09:23:49.466Z,36.22
2016-04-20T09:23:59.450Z,36.15
2016-04-20T09:24:09.466Z,36.05
2016-04-20T09:24:19.466Z,35.86
2016-04-20T09:24:29.497Z,35.68
2016-04-20T09:24:39.481Z,35.78
2016-04-20T09:24:49.546Z,35.39
2016-04-20T09:24:59.499Z,35.39
2016-04-20T09:25:09.515Z,35.39
2016-04-20T09:25:19.515Z,35
2016-04-20T09:25:29.515Z,34.89
2016-04-20T09:25:39.530Z,35.18
2016-04-20T09:25:49.533Z,34.99
2016-04-20T09:25:59.549Z,34.68
2016-04-20T09:26:09.549Z,34.87
2016-04-20T09:26:19.564Z,34.76
2016-04-20T09:26:29.564Z,35.24
2016-04-20T09:26:39.580Z,35.42
2016-04-20T09:26:49.582Z,35.52
2016-04-20T09:26:59.582Z,35.78
2016-04-20T09:27:09.598Z,36.19
2016-04-20T09:27:19.598Z,35.98
2016-04-20T09:27:29.613Z,36.46
2016-04-20T09:27:39.629Z,36.46
2016-04-20T09:27:49.632Z,36.75
2016-04-20T09:27:59.632Z,36.85
2016-04-20T09:28:09.648Z,36.94
2016-04-20T09:28:19.648Z,36.85
2016-04-20T09:28:29.648Z,36.83
2016-04-20T09:28:39.663Z,36.93
2016-04-20T09:28:49.666Z,36.94
2016-04-20T09:28:59.682Z,37.12
2016-04-20T09:29:09.697Z,37.23
2016-04-20T09:29:19.697Z,37.31
2016-04-20T09:29:29.713Z,37.7
2016-04-20T09:29:39.729Z,37.5
2016-04-20T09:29:49.716Z,37.6
2016-04-20T09:29:59.732Z,38.06
2016-04-20T09:30:09.732Z,37.87
2016-04-20T09:30:19.732Z,38.35
2016-04-20T09:30:29.747Z,38.45
2016-04-20T09:30:39.747Z,38.62
2016-04-20T09:30:49.843Z,38.62
2016-04-20T09:30:59.906Z,39.11
2016-04-20T09:31:09.781Z,39.28
2016-04-20T09:31:19.781Z,39.2
2016-04-20T09:31:29.796Z,39.66
2016-04-20T09:31:39.796Z,39.76
2016-04-20T09:31:49.815Z,39.56
2016-04-20T09:31:59.815Z,39.66
2016-04-20T09:32:09.830Z,39.86
2016-04-20T09:32:19.830Z,39.86
2016-04-20T09:32:29.830Z,39.86
2016-04-20T09:32:39.846Z,39.95
2016-04-20T09:32:49.848Z,40.12
2016-04-20T09:32:59.864Z,39.93
2016-04-20T09:33:09.864Z,40.22
2016-04-20T09:33:19.879Z,40.12
2016-04-20T09:33:29.879Z,40.31
2016-04-20T09:33:39.895Z,40.12
2016-04-20T09:33:49.898Z,40.51
2016-04-20T09:33:59.898Z,40.61
2016-04-20T09:34:09.929Z,40.51
2016-04-20T09:34:19.929Z,40.49
2016-04-20T09:34:29.929Z,40.41
2016-04-20T09:34:39.929Z,40.31
2016-04-20T09:34:49.963Z,40.22
2016-04-20T09:34:59.948Z,40.24
2016-04-20T09:35:09.948Z,40.05
2016-04-20T09:35:19.963Z,39.95
2016-04-20T09:35:29.963Z,39.86
2016-04-20T09:35:39.979Z,39.76
2016-04-20T09:35:49.981Z,39.49
2016-04-20T09:35:59.997Z,39.39
2016-04-20T09:36:09.997Z,39.11
2016-04-20T09:36:20.012Z,38.72
2016-04-20T09:36:30.012Z,38.74
2016-04-20T09:36:40.012Z,38.83
2016-04-20T09:36:50.031Z,38.54
2016-04-20T09:37:00.031Z,38.45
2016-04-20T09:37:10.047Z,38.16
2016-04-20T09:37:20.047Z,38.35
2016-04-20T09:37:30.062Z,38.26
2016-04-20T09:37:40.062Z,38.26
2016-04-20T09:37:50.064Z,38.35
2016-04-20T09:38:00.080Z,38.26
2016-04-20T09:38:10.080Z,38.18
2016-04-20T09:38:20.095Z,38.28
2016-04-20T09:38:30.095Z,38.28
2016-04-20T09:38:40.111Z,38.39
2016-04-20T09:38:50.115Z,38.18
2016-04-20T09:39:00.131Z,38.1
2016-04-20T09:39:10.131Z,38.56
2016-04-20T09:39:20.131Z,38.56
2016-04-20T09:39:30.146Z,38.46
2016-04-20T09:39:40.146Z,38.85
2016-04-20T09:39:50.164Z,38.85
2016-04-20T09:40:00.164Z,38.64
2016-04-20T09:40:10.180Z,38.66
2016-04-20T09:40:20.180Z,38.37
2016-04-20T09:40:30.195Z,38.46
2016-04-20T09:40:40.195Z,38.26
2016-04-20T09:40:50.214Z,37.98
2016-04-20T09:41:00.214Z,37.87
2016-04-20T09:41:10.214Z,38.45
2016-04-20T09:41:20.229Z,38.45
2016-04-20T09:41:30.245Z,38.64
2016-04-20T09:41:40.245Z,38.26
2016-04-20T09:41:50.248Z,38.64
2016-04-20T09:42:00.264Z,38.45
2016-04-20T09:42:10.264Z,38.46
2016-04-20T09:42:20.279Z,37.98
2016-04-20T09:42:30.279Z,38.28
2016-04-20T09:42:40.295Z,37.98
2016-04-20T09:42:50.297Z,38.28
2016-04-20T09:43:00.297Z,37.87
2016-04-20T09:43:10.313Z,38.06
2016-04-20T09:43:20.313Z,38.06
2016-04-20T09:43:30.328Z,37.87
2016-04-20T09:43:40.328Z,38.08
2016-04-20T09:43:50.347Z,37.98
2016-04-20T09:44:00.347Z,37.79
2016-04-20T09:44:10.362Z,37.89
2016-04-20T09:44:20.362Z,37.62
2016-04-20T09:44:30.362Z,37.43
2016-04-20T09:44:40.378Z,37.13
2016-04-20T09:44:50.380Z,37.23
2016-04-20T09:45:00.396Z,37.35
2016-04-20T09:45:10.396Z,37.06
2016-04-20T09:45:20.411Z,37.15
2016-04-20T09:45:30.411Z,36.67
2016-04-20T09:45:40.411Z,36.57
2016-04-20T09:45:50.430Z,36.3
2016-04-20T09:46:00.430Z,36.11
2016-04-20T09:46:10.446Z,36.11
2016-04-20T09:46:20.446Z,35.94
2016-04-20T09:46:30.461Z,35.86
2016-04-20T09:46:40.461Z,35.57
2016-04-20T09:46:50.527Z,35.47
2016-04-20T09:47:00.480Z,35.18
2016-04-20T09:47:10.495Z,34.79
2016-04-20T09:47:20.495Z,34.89
2016-04-20T09:47:30.495Z,34.97
2016-04-20T09:47:40.511Z,34.99
2016-04-20T09:47:50.514Z,34.89
2016-04-20T09:48:00.748Z,34.6
2016-04-20T09:48:10.530Z,34.5
2016-04-20T09:48:20.545Z,34.7
2016-04-20T09:48:30.545Z,34.7
2016-04-20T09:48:40.561Z,34.41
2016-04-20T09:48:50.564Z,34.41
2016-04-20T09:49:00.595Z,34.41
2016-04-20T09:49:10.595Z,34.21
2016-04-20T09:49:20.595Z,33.73
2016-04-20T09:49:30.595Z,34.02
2016-04-20T09:49:40.595Z,33.92
2016-04-20T09:49:50.628Z,33.91
2016-04-20T09:50:00.628Z,34
2016-04-20T09:50:10.628Z,34.1
2016-04-20T09:50:20.644Z,34.56
2016-04-20T09:50:30.644Z,34.47
2016-04-20T09:50:40.644Z,34.47
2016-04-20T09:50:50.647Z,34.66
2016-04-20T09:51:00.663Z,34.64
2016-04-20T09:51:44.210Z,34.64
2016-04-20T09:51:54.196Z,34.92
2016-04-20T09:52:04.196Z,35.52
2016-04-20T09:52:14.212Z,35.4
2016-04-20T09:52:24.212Z,35.59
2016-04-20T09:52:34.227Z,35.48
2016-04-20T09:52:44.227Z,35.96
2016-04-20T09:52:54.230Z,35.98
2016-04-20T09:53:04.246Z,36.29
2016-04-20T09:53:14.246Z,36.38
2016-04-20T09:53:24.261Z,36.19
2016-04-20T09:53:34.261Z,36.19
2016-04-20T09:53:44.277Z,35.9
2016-04-20T09:53:54.280Z,36.11
2016-04-20T09:54:04.296Z,35.92
2016-04-20T09:54:14.296Z,35.74
2016-04-20T09:54:24.296Z,35.45
2016-04-20T09:54:34.311Z,35.55
2016-04-20T09:54:44.327Z,34.6
2016-04-20T09:54:54.330Z,34.5
2016-04-20T09:55:04.330Z,34.33
2016-04-20T09:55:14.346Z,33.95
2016-04-20T09:55:24.346Z,33.67
2016-04-20T09:55:34.361Z,33.67
2016-04-20T09:55:44.361Z,33.29
2016-04-20T09:55:54.379Z,32.52
2016-04-20T09:56:04.379Z,32.44
2016-04-20T09:56:14.394Z,31.86
2016-04-20T09:56:24.394Z,31.67
2016-04-20T09:56:34.394Z,31.29
2016-04-20T09:56:44.410Z,31.1
2016-04-20T09:56:54.429Z,31.01
2016-04-20T09:57:04.429Z,31.01
2016-04-20T09:57:14.429Z,30.92
2016-04-20T09:57:24.444Z,30.54
2016-04-20T09:57:34.444Z,30.54
2016-04-20T09:57:44.460Z,30.45
2016-04-20T09:57:54.463Z,30.26
2016-04-20T09:58:04.479Z,30.26
2016-04-20T09:58:14.479Z,29.88
2016-04-20T09:58:24.494Z,29.98
2016-04-20T09:58:34.494Z,30.08
2016-04-20T09:58:44.494Z,29.5
2016-04-20T09:58:54.512Z,29.69
2016-04-20T09:59:04.512Z,29.79
2016-04-20T09:59:14.527Z,29.98
2016-04-20T09:59:24.543Z,29.79
2016-04-20T09:59:34.543Z,29.6
2016-04-20T09:59:44.543Z,29.88
2016-04-20T09:59:54.562Z,29.58
2016-04-20T10:00:04.562Z,29.69
2016-04-20T10:00:14.577Z,30.09
2016-04-20T10:00:24.577Z,29.8
2016-04-20T10:00:34.593Z,29.61
2016-04-20T10:00:44.593Z,29.41
2016-04-20T10:00:54.611Z,29.32
2016-04-20T10:01:04.611Z,29.04
2016-04-20T10:01:14.626Z,28.94
2016-04-20T10:01:24.626Z,29.24
2016-04-20T10:01:34.642Z,28.94
2016-04-20T10:01:44.939Z,28.65
2016-04-20T10:01:54.660Z,28.66
2016-04-20T10:02:04.660Z,28.28
2016-04-20T10:02:14.676Z,28.26
2016-04-20T10:02:24.692Z,28.17
2016-04-20T10:02:34.692Z,27.98
2016-04-20T10:02:44.692Z,28.08
2016-04-20T10:02:54.710Z,27.89
2016-04-20T10:03:04.710Z,27.9
2016-04-20T10:03:14.726Z,27.8
2016-04-20T10:03:24.726Z,28.2
2016-04-20T10:03:34.742Z,27.9
2016-04-20T10:03:44.742Z,27.89
2016-04-20T10:03:54.759Z,27.59
2016-04-20T10:04:04.759Z,27.89
2016-04-20T10:04:14.775Z,28.07
2016-04-20T10:04:24.775Z,28.17
2016-04-20T10:04:34.775Z,28.26
2016-04-20T10:04:44.790Z,28.36
2016-04-20T10:04:54.809Z,28.66
2016-04-20T10:05:04.825Z,28.57
2016-04-20T10:05:14.809Z,28.28
2016-04-20T10:05:24.825Z,28.39
2016-04-20T10:05:34.825Z,28.39
2016-04-20T10:05:44.840Z,28.19
2016-04-20T10:05:54.843Z,28.09
2016-04-20T10:06:04.859Z,27.9
2016-04-20T10:06:14.875Z,28.29
2016-04-20T10:06:24.875Z,27.9
2016-04-20T10:06:34.890Z,27.89
2016-04-20T10:06:44.890Z,28.19
2016-04-20T10:06:54.908Z,28.18
2016-04-20T10:07:04.908Z,28.57
2016-04-20T10:07:14.908Z,28.58
2016-04-20T10:07:24.923Z,28.49
2016-04-20T10:07:34.923Z,29.06
2016-04-20T10:07:44.939Z,28.97
2016-04-20T10:07:54.958Z,28.97
2016-04-20T10:08:04.958Z,29.08
2016-04-20T10:08:14.973Z,28.5
2016-04-20T10:08:24.973Z,28.79
2016-04-20T10:08:34.989Z,28.61
2016-04-20T10:08:44.989Z,28.51
2016-04-20T10:08:55.008Z,28.14
2016-04-20T10:09:05.008Z,28.42
2016-04-20T10:09:15.008Z,28.03
2016-04-20T10:09:25.023Z,28.14
2016-04-20T10:09:35.023Z,28.04
2016-04-20T10:09:45.039Z,28.74
2016-04-20T10:09:55.057Z,28.74
2016-04-20T10:10:05.057Z,28.83
2016-04-20T10:10:15.073Z,28.54
2016-04-20T10:10:25.073Z,28.44
2016-04-20T10:10:35.089Z,28.26
2016-04-20T10:10:45.089Z,28.16
2016-04-20T10:10:55.092Z,28.16
2016-04-20T10:11:05.107Z,27.58
2016-04-20T10:11:15.107Z,27.47
2016-04-20T10:11:25.123Z,27.86
2016-04-20T10:11:35.139Z,27.94
2016-04-20T10:11:45.139Z,28.23
2016-04-20T10:11:55.156Z,28.72
2016-04-20T10:12:05.156Z,28.82
2016-04-20T10:12:15.172Z,28.53
2016-04-20T10:12:25.172Z,28.51
2016-04-20T10:12:35.172Z,28.9
2016-04-20T10:12:45.187Z,29.1
2016-04-20T10:12:55.206Z,29.28
2016-04-20T10:13:05.222Z,29.28
2016-04-20T10:13:15.222Z,29.08
2016-04-20T10:13:25.222Z,29.28
2016-04-20T10:13:35.237Z,29.36
2016-04-20T10:13:45.237Z,29.44
2016-04-20T10:13:55.256Z,29.35
2016-04-20T10:14:05.256Z,29.35
2016-04-20T10:14:15.272Z,29.83
2016-04-20T10:14:25.756Z,29.62
2016-04-20T10:14:47.850Z,29.62
2016-04-20T10:14:58.259Z,29.8
2016-04-20T10:15:07.821Z,29.9
2016-04-20T10:15:17.837Z,29.8
2016-04-20T10:15:27.821Z,29.71
2016-04-20T10:15:37.837Z,30.09
2016-04-20T10:15:47.853Z,29.8
2016-04-20T10:15:57.855Z,29.98
2016-04-20T10:16:07.870Z,29.98
2016-04-20T10:16:17.870Z,30.08
2016-04-20T10:16:27.886Z,30.57
2016-04-20T10:16:37.886Z,30.66
2016-04-20T10:16:47.886Z,30.74
2016-04-20T10:16:57.905Z,30.65
2016-04-20T10:17:07.920Z,30.94
2016-04-20T10:17:17.920Z,30.63
2016-04-20T10:17:27.936Z,30.82
2016-04-20T10:17:37.936Z,31.21
2016-04-20T10:17:47.951Z,31.59
2016-04-20T10:17:57.954Z,31.68
2016-04-20T10:18:07.970Z,31.96
2016-04-20T10:18:17.970Z,31.96
2016-04-20T10:18:27.986Z,32.44
2016-04-20T10:18:37.986Z,32.62
2016-04-20T10:18:48.001Z,32.51
2016-04-20T10:18:58.003Z,33.09
2016-04-20T10:19:08.019Z,33.37
2016-04-20T10:19:18.019Z,32.97
2016-04-20T10:19:28.035Z,33.45
2016-04-20T10:19:38.035Z,33.55
2016-04-20T10:19:48.035Z,33.65
2016-04-20T10:19:58.069Z,33.67
2016-04-20T10:20:08.053Z,33.84
2016-04-20T10:20:18.069Z,33.86
2016-04-20T10:20:28.084Z,33.84
2016-04-20T10:20:38.084Z,33.65
2016-04-20T10:20:48.084Z,33.65
2016-04-20T10:20:58.103Z,33.55
2016-04-20T10:21:08.103Z,33.75
2016-04-20T10:21:18.119Z,33.94
2016-04-20T10:21:28.119Z,33.84
2016-04-20T10:21:38.134Z,33.73
2016-04-20T10:21:48.134Z,33.83
2016-04-20T10:21:58.152Z,33.92
2016-04-20T10:22:08.152Z,34.02
2016-04-20T10:22:18.168Z,33.63
2016-04-20T10:22:28.168Z,34.21
2016-04-20T10:22:38.183Z,34.39
2016-04-20T10:22:48.183Z,34.39
2016-04-20T10:22:58.202Z,34.47
2016-04-20T10:23:08.202Z,34.38
2016-04-20T10:23:18.217Z,34.45
2016-04-20T10:23:28.217Z,34.74
2016-04-20T10:23:38.233Z,34.55
2016-04-20T10:23:48.233Z,34.94
2016-04-20T10:23:58.252Z,35.32
2016-04-20T10:24:08.252Z,35.03
2016-04-20T10:24:18.267Z,35.11
2016-04-20T10:24:28.267Z,35.5
2016-04-20T10:24:38.267Z,35.59
2016-04-20T10:24:48.283Z,35.98
2016-04-20T10:24:58.285Z,36.07
2016-04-20T10:25:08.301Z,35.96
2016-04-20T10:25:18.301Z,36.06
2016-04-20T10:25:28.316Z,36.15
2016-04-20T10:25:38.316Z,36.06
2016-04-20T10:25:48.332Z,36.06
2016-04-20T10:25:58.335Z,35.96
2016-04-20T10:26:08.335Z,35.86
2016-04-20T10:26:18.350Z,35.86
2016-04-20T10:26:28.350Z,35.96
2016-04-20T10:26:38.366Z,36.17
2016-04-20T10:26:48.382Z,35.98
2016-04-20T10:26:58.384Z,35.98
2016-04-20T10:27:08.399Z,35.9
2016-04-20T10:27:18.399Z,35.61
2016-04-20T10:27:28.399Z,35.61
2016-04-20T10:27:38.415Z,35.24
2016-04-20T10:27:48.415Z,34.87
2016-04-20T10:27:58.434Z,34.78
2016-04-20T10:28:08.434Z,34.12
2016-04-20T10:28:18.449Z,34.6
2016-04-20T10:28:28.449Z,33.83
2016-04-20T10:28:38.449Z,33.75
2016-04-20T10:28:48.465Z,33.84
2016-04-20T10:28:58.483Z,33.76
2016-04-20T10:29:08.483Z,33.18
2016-04-20T10:29:18.483Z,32.89
2016-04-20T10:29:28.499Z,32.42
2016-04-20T10:29:38.499Z,32.42
2016-04-20T10:29:48.515Z,32.54
2016-04-20T10:29:58.518Z,31.86
2016-04-20T10:30:08.533Z,31.87
2016-04-20T10:30:18.533Z,32.07
2016-04-20T10:30:28.549Z,31.68
2016-04-20T10:30:38.549Z,31.6
2016-04-20T10:30:48.565Z,31.89
2016-04-20T10:30:58.567Z,31.7
2016-04-20T10:31:08.582Z,31.7
2016-04-20T10:31:18.582Z,31.5
2016-04-20T10:31:28.598Z,31.6
2016-04-20T10:31:38.598Z,31.5
2016-04-20T10:31:48.613Z,31.7
2016-04-20T10:31:58.616Z,31.5
2016-04-20T10:32:08.632Z,31.31
2016-04-20T10:32:18.632Z,31.41
2016-04-20T10:32:28.648Z,31.31
2016-04-20T10:32:38.648Z,30.94
2016-04-20T10:32:48.663Z,31.23
2016-04-20T10:32:58.666Z,30.94
2016-04-20T10:33:08.666Z,30.66
2016-04-20T10:33:18.682Z,30.47
2016-04-20T10:33:28.682Z,30
2016-04-20T10:33:38.698Z,30
2016-04-20T10:33:48.698Z,30
2016-04-20T10:33:58.716Z,30
2016-04-20T10:34:08.716Z,30.21
2016-04-20T10:34:18.732Z,29.62
2016-04-20T10:34:28.732Z,29.62
2016-04-20T10:34:38.747Z,29.33
2016-04-20T10:34:48.747Z,28.96
2016-04-20T10:34:58.766Z,28.94
2016-04-20T10:35:08.844Z,29.05
2016-04-20T10:35:18.813Z,29.04
2016-04-20T10:35:28.797Z,28.85
2016-04-20T10:35:38.797Z,28.66
2016-04-20T10:35:48.797Z,28.75
2016-04-20T10:35:58.815Z,28.45
2016-04-20T10:36:08.815Z,28.57
2016-04-20T10:36:18.831Z,28.76
2016-04-20T10:36:28.831Z,28.19
2016-04-20T10:36:38.846Z,28.29
2016-04-20T10:36:48.846Z,28.02
2016-04-20T10:36:58.864Z,28.02
2016-04-20T10:37:08.864Z,27.72
2016-04-20T10:37:18.879Z,27.83
2016-04-20T10:37:28.879Z,27.34
2016-04-20T10:37:38.895Z,27.44
2016-04-20T10:37:48.895Z,27.54